sensor_id;sensor_type;location;lat;lon;timestamp;pressure;altitude;pressure_sealevel;temperature;humidity
4012;BME280;2020;48.682;9.024;2023-04-30T00:01:26;96696.91;;;10.31;88.12
4012;BME280;2020;48.682;9.024;2023-04-30T00:03:51;96696.91;;;10.31;88.36
4012;BME280;2020;48.682;9.024;2023-04-30T00:06:16;96688.00;;;10.33;88.52
4012;BME280;2020;48.682;9.024;2023-04-30T00:08:42;96698.84;;;10.29;88.14
4012;BME280;2020;48.682;9.024;2023-04-30T00:11:07;96697.72;;;10.31;88.01
4012;BME280;2020;48.682;9.024;2023-04-30T00:13:32;96699.66;;;10.29;87.87
4012;BME280;2020;48.682;9.024;2023-04-30T00:15:58;96698.84;;;10.29;88.00
4012;BME280;2020;48.682;9.024;2023-04-30T00:18:23;96692.59;;;10.21;88.98
4012;BME280;2020;48.682;9.024;2023-04-30T00:20:48;96696.16;;;10.20;89.14
4012;BME280;2020;48.682;9.024;2023-04-30T00:23:16;96694.38;;;10.21;88.75
4012;BME280;2020;48.682;9.024;2023-04-30T00:25:41;96693.19;;;10.15;89.06
4012;BME280;2020;48.682;9.024;2023-04-30T00:28:06;96691.69;;;10.13;89.66
4012;BME280;2020;48.682;9.024;2023-04-30T00:30:31;96695.13;;;10.13;89.78
4012;BME280;2020;48.682;9.024;2023-04-30T00:32:57;96699.75;;;10.19;89.44
4012;BME280;2020;48.682;9.024;2023-04-30T00:35:22;96696.75;;;10.14;89.86
4012;BME280;2020;48.682;9.024;2023-04-30T00:37:47;96698.97;;;10.09;89.48
4012;BME280;2020;48.682;9.024;2023-04-30T00:40:12;96697.66;;;10.05;89.91
4012;BME280;2020;48.682;9.024;2023-04-30T00:42:38;96702.00;;;10.04;89.68
4012;BME280;2020;48.682;9.024;2023-04-30T00:45:03;96706.03;;;9.99;89.84
4012;BME280;2020;48.682;9.024;2023-04-30T00:47:29;96707.97;;;9.97;90.65
4012;BME280;2020;48.682;9.024;2023-04-30T00:49:56;96702.34;;;9.91;90.34
4012;BME280;2020;48.682;9.024;2023-04-30T00:52:21;96702.50;;;9.90;89.96
4012;BME280;2020;48.682;9.024;2023-04-30T00:54:47;96708.78;;;9.87;90.33
4012;BME280;2020;48.682;9.024;2023-04-30T00:57:12;96706.88;;;9.89;89.86
4012;BME280;2020;48.682;9.024;2023-04-30T00:59:38;96708.13;;;9.85;90.15
4012;BME280;2020;48.682;9.024;2023-04-30T01:02:03;96698.00;;;9.82;90.32
4012;BME280;2020;48.682;9.024;2023-04-30T01:04:28;96713.91;;;9.79;90.76
4012;BME280;2020;48.682;9.024;2023-04-30T01:06:54;96713.63;;;9.82;90.71
4012;BME280;2020;48.682;9.024;2023-04-30T01:09:20;96711.97;;;9.81;90.57
4012;BME280;2020;48.682;9.024;2023-04-30T01:12:16;96703.50;;;9.79;91.12
4012;BME280;2020;48.682;9.024;2023-04-30T01:15:06;96698.31;;;9.79;90.69
4012;BME280;2020;48.682;9.024;2023-04-30T01:17:37;96688.78;;;9.70;90.72
4012;BME280;2020;48.682;9.024;2023-04-30T01:20:04;96687.91;;;9.51;91.22
4012;BME280;2020;48.682;9.024;2023-04-30T01:25:34;96685.97;;;9.53;91.86
4012;BME280;2020;48.682;9.024;2023-04-30T01:28:12;96692.44;;;9.49;92.11
4012;BME280;2020;48.682;9.024;2023-04-30T01:30:40;96689.16;;;9.47;92.93
4012;BME280;2020;48.682;9.024;2023-04-30T01:33:08;96685.31;;;9.51;92.35
4012;BME280;2020;48.682;9.024;2023-04-30T01:36:12;96690.22;;;9.54;92.40
4012;BME280;2020;48.682;9.024;2023-04-30T01:41:39;96680.88;;;9.61;91.21
4012;BME280;2020;48.682;9.024;2023-04-30T01:47:03;96694.34;;;9.47;92.75
4012;BME280;2020;48.682;9.024;2023-04-30T01:55:17;96687.50;;;9.56;91.65
4012;BME280;2020;48.682;9.024;2023-04-30T01:57:58;96689.63;;;9.60;91.74
4012;BME280;2020;48.682;9.024;2023-04-30T02:00:28;96696.25;;;9.55;92.05
4012;BME280;2020;48.682;9.024;2023-04-30T02:02:55;96694.44;;;9.55;90.86
4012;BME280;2020;48.682;9.024;2023-04-30T02:05:20;96689.25;;;9.55;90.86
4012;BME280;2020;48.682;9.024;2023-04-30T02:07:48;96682.69;;;9.61;91.22
4012;BME280;2020;48.682;9.024;2023-04-30T02:10:16;96686.91;;;9.62;90.61
4012;BME280;2020;48.682;9.024;2023-04-30T02:12:41;96685.31;;;9.51;89.90
4012;BME280;2020;48.682;9.024;2023-04-30T02:15:07;96682.31;;;9.46;90.80
4012;BME280;2020;48.682;9.024;2023-04-30T02:17:33;96690.28;;;9.34;90.02
4012;BME280;2020;48.682;9.024;2023-04-30T02:19:58;96690.84;;;9.38;90.74
4012;BME280;2020;48.682;9.024;2023-04-30T02:22:24;96696.28;;;9.45;89.56
4012;BME280;2020;48.682;9.024;2023-04-30T02:24:49;96687.56;;;9.36;89.95
4012;BME280;2020;48.682;9.024;2023-04-30T02:27:16;96686.50;;;9.29;89.90
4012;BME280;2020;48.682;9.024;2023-04-30T02:29:41;96683.25;;;9.17;90.20
4012;BME280;2020;48.682;9.024;2023-04-30T02:32:06;96691.72;;;9.19;90.35
4012;BME280;2020;48.682;9.024;2023-04-30T02:34:31;96686.06;;;9.24;90.26
4012;BME280;2020;48.682;9.024;2023-04-30T02:36:57;96689.50;;;9.34;90.51
4012;BME280;2020;48.682;9.024;2023-04-30T02:39:22;96683.47;;;9.33;90.13
4012;BME280;2020;48.682;9.024;2023-04-30T02:41:47;96685.38;;;9.31;89.80
4012;BME280;2020;48.682;9.024;2023-04-30T02:44:13;96682.50;;;9.34;89.64
4012;BME280;2020;48.682;9.024;2023-04-30T02:46:38;96684.03;;;9.27;89.76
4012;BME280;2020;48.682;9.024;2023-04-30T02:49:03;96685.13;;;9.25;90.09
4012;BME280;2020;48.682;9.024;2023-04-30T02:51:29;96686.34;;;9.20;90.18
4012;BME280;2020;48.682;9.024;2023-04-30T02:53:55;96691.56;;;9.20;89.75
4012;BME280;2020;48.682;9.024;2023-04-30T02:56:20;96691.44;;;9.22;89.61
4012;BME280;2020;48.682;9.024;2023-04-30T02:58:46;96687.47;;;9.18;89.48
4012;BME280;2020;48.682;9.024;2023-04-30T03:01:12;96688.44;;;9.17;89.63
4012;BME280;2020;48.682;9.024;2023-04-30T03:03:38;96692.94;;;9.15;89.84
4012;BME280;2020;48.682;9.024;2023-04-30T03:06:03;96686.13;;;9.14;90.57
4012;BME280;2020;48.682;9.024;2023-04-30T03:08:29;96693.13;;;9.03;90.00
4012;BME280;2020;48.682;9.024;2023-04-30T03:10:54;96682.19;;;9.00;92.14
4012;BME280;2020;48.682;9.024;2023-04-30T03:13:19;96690.91;;;9.09;91.37
4012;BME280;2020;48.682;9.024;2023-04-30T03:15:45;96685.44;;;9.12;90.62
4012;BME280;2020;48.682;9.024;2023-04-30T03:18:10;96693.91;;;9.14;90.40
4012;BME280;2020;48.682;9.024;2023-04-30T03:20:35;96692.00;;;9.06;90.42
4012;BME280;2020;48.682;9.024;2023-04-30T03:23:01;96688.72;;;9.14;90.89
4012;BME280;2020;48.682;9.024;2023-04-30T03:25:26;96686.13;;;9.14;90.57
4012;BME280;2020;48.682;9.024;2023-04-30T03:27:51;96685.84;;;9.17;90.11
4012;BME280;2020;48.682;9.024;2023-04-30T03:30:16;96689.25;;;9.17;90.62
4012;BME280;2020;48.682;9.024;2023-04-30T03:32:42;96686.13;;;9.14;90.22
4012;BME280;2020;48.682;9.024;2023-04-30T03:35:07;96682.16;;;9.10;90.51
4012;BME280;2020;48.682;9.024;2023-04-30T03:37:32;96682.16;;;9.10;89.97
4012;BME280;2020;48.682;9.024;2023-04-30T03:39:58;96676.19;;;8.99;91.09
4012;BME280;2020;48.682;9.024;2023-04-30T03:42:23;96673.97;;;9.04;91.79
4012;BME280;2020;48.682;9.024;2023-04-30T03:44:48;96674.50;;;9.08;91.48
4012;BME280;2020;48.682;9.024;2023-04-30T03:47:13;96679.97;;;9.05;91.40
4012;BME280;2020;48.682;9.024;2023-04-30T03:49:39;96686.28;;;9.02;90.69
4012;BME280;2020;48.682;9.024;2023-04-30T03:52:04;96673.19;;;8.94;90.94
4012;BME280;2020;48.682;9.024;2023-04-30T03:54:31;96670.16;;;8.99;91.71
4012;BME280;2020;48.682;9.024;2023-04-30T03:56:58;96675.38;;;8.89;90.96
4012;BME280;2020;48.682;9.024;2023-04-30T03:59:23;96681.09;;;8.92;91.42
4012;BME280;2020;48.682;9.024;2023-04-30T04:01:49;96684.94;;;8.88;91.09
4012;BME280;2020;48.682;9.024;2023-04-30T04:04:15;96683.84;;;8.91;90.94
4012;BME280;2020;48.682;9.024;2023-04-30T04:06:40;96683.03;;;8.81;91.55
4012;BME280;2020;48.682;9.024;2023-04-30T04:09:05;96676.22;;;8.80;93.12
4012;BME280;2020;48.682;9.024;2023-04-30T04:11:31;96678.38;;;8.84;91.62
4012;BME280;2020;48.682;9.024;2023-04-30T04:13:56;96683.28;;;8.87;91.49
4012;BME280;2020;48.682;9.024;2023-04-30T04:16:21;96688.25;;;8.81;91.21
4012;BME280;2020;48.682;9.024;2023-04-30T04:18:46;96684.97;;;8.78;90.85
4012;BME280;2020;48.682;9.024;2023-04-30T04:21:12;96683.88;;;8.71;90.52
4012;BME280;2020;48.682;9.024;2023-04-30T04:23:37;96690.03;;;8.70;91.55
4012;BME280;2020;48.682;9.024;2023-04-30T04:26:02;96696.44;;;8.66;91.36
4012;BME280;2020;48.682;9.024;2023-04-30T04:28:28;96690.44;;;8.75;91.21
4012;BME280;2020;48.682;9.024;2023-04-30T04:30:53;96695.06;;;8.72;91.71
4012;BME280;2020;48.682;9.024;2023-04-30T04:33:18;96690.44;;;8.75;90.99
4012;BME280;2020;48.682;9.024;2023-04-30T04:35:43;96697.25;;;8.76;90.90
4012;BME280;2020;48.682;9.024;2023-04-30T04:38:10;96695.06;;;8.82;90.45
4012;BME280;2020;48.682;9.024;2023-04-30T04:40:35;96705.72;;;8.78;90.71
4012;BME280;2020;48.682;9.024;2023-04-30T04:43:01;96701.91;;;8.83;90.79
4012;BME280;2020;48.682;9.024;2023-04-30T04:45:26;96693.69;;;8.87;90.81
4012;BME280;2020;48.682;9.024;2023-04-30T04:47:51;96697.66;;;8.82;90.54
4012;BME280;2020;48.682;9.024;2023-04-30T04:50:17;96696.44;;;8.86;90.75
4012;BME280;2020;48.682;9.024;2023-04-30T04:52:42;96699.69;;;8.88;89.81
4012;BME280;2020;48.682;9.024;2023-04-30T04:55:07;96695.59;;;8.85;89.84
4012;BME280;2020;48.682;9.024;2023-04-30T04:57:33;96693.72;;;8.77;90.28
4012;BME280;2020;48.682;9.024;2023-04-30T04:59:59;96697.53;;;8.73;89.93
4012;BME280;2020;48.682;9.024;2023-04-30T05:02:24;96696.19;;;8.69;90.02
4012;BME280;2020;48.682;9.024;2023-04-30T05:04:49;96695.06;;;8.72;89.66
4012;BME280;2020;48.682;9.024;2023-04-30T05:07:18;96704.63;;;8.71;89.97
4012;BME280;2020;48.682;9.024;2023-04-30T05:09:44;96699.44;;;8.81;89.78
4012;BME280;2020;48.682;9.024;2023-04-30T05:12:10;96703.81;;;8.81;89.30
4012;BME280;2020;48.682;9.024;2023-04-30T05:14:36;96704.91;;;8.88;89.40
4012;BME280;2020;48.682;9.024;2023-04-30T05:17:01;96699.44;;;8.91;88.84
4012;BME280;2020;48.682;9.024;2023-04-30T05:19:26;96705.41;;;9.01;89.92
4012;BME280;2020;48.682;9.024;2023-04-30T05:21:52;96706.50;;;8.99;88.24
4012;BME280;2020;48.682;9.024;2023-04-30T05:24:17;96699.66;;;9.07;89.31
4012;BME280;2020;48.682;9.024;2023-04-30T05:26:42;96703.50;;;9.03;89.02
4012;BME280;2020;48.682;9.024;2023-04-30T05:29:08;96704.75;;;8.99;88.10
4012;BME280;2020;48.682;9.024;2023-04-30T05:31:34;96698.03;;;9.06;88.34
4012;BME280;2020;48.682;9.024;2023-04-30T05:34:00;96693.50;;;9.09;87.73
4012;BME280;2020;48.682;9.024;2023-04-30T05:36:26;96696.66;;;9.02;87.92
4012;BME280;2020;48.682;9.024;2023-04-30T05:38:51;96696.44;;;8.86;87.99
4012;BME280;2020;48.682;9.024;2023-04-30T05:41:16;96692.31;;;8.93;89.19
4012;BME280;2020;48.682;9.024;2023-04-30T05:43:42;96688.59;;;9.05;88.88
4012;BME280;2020;48.682;9.024;2023-04-30T05:46:07;96692.28;;;9.03;87.74
4012;BME280;2020;48.682;9.024;2023-04-30T05:48:32;96696.94;;;8.99;87.76
4012;BME280;2020;48.682;9.024;2023-04-30T05:50:57;96699.09;;;9.14;87.51
4012;BME280;2020;48.682;9.024;2023-04-30T05:53:23;96694.69;;;9.34;86.92
4012;BME280;2020;48.682;9.024;2023-04-30T05:55:48;96694.06;;;9.50;85.18
4012;BME280;2020;48.682;9.024;2023-04-30T05:58:13;96697.03;;;9.55;85.41
4012;BME280;2020;48.682;9.024;2023-04-30T06:00:39;96695.41;;;9.54;84.46
4012;BME280;2020;48.682;9.024;2023-04-30T06:03:04;96702.81;;;9.49;84.62
4012;BME280;2020;48.682;9.024;2023-04-30T06:05:30;96707.50;;;9.35;84.87
4012;BME280;2020;48.682;9.024;2023-04-30T06:07:55;96701.34;;;9.36;84.85
4012;BME280;2020;48.682;9.024;2023-04-30T06:10:20;96703.44;;;9.23;85.38
4012;BME280;2020;48.682;9.024;2023-04-30T06:12:46;96706.16;;;9.31;85.83
4012;BME280;2020;48.682;9.024;2023-04-30T06:15:11;96712.44;;;9.39;85.95
4012;BME280;2020;48.682;9.024;2023-04-30T06:17:36;96712.53;;;9.47;85.63
4012;BME280;2020;48.682;9.024;2023-04-30T06:20:02;96709.91;;;9.57;86.13
4012;BME280;2020;48.682;9.024;2023-04-30T06:22:31;96711.78;;;9.64;85.10
4012;BME280;2020;48.682;9.024;2023-04-30T06:24:56;96711.88;;;9.73;84.96
4012;BME280;2020;48.682;9.024;2023-04-30T06:27:22;96716.88;;;9.84;84.99
4012;BME280;2020;48.682;9.024;2023-04-30T06:29:47;96711.94;;;9.91;85.40
4012;BME280;2020;48.682;9.024;2023-04-30T06:32:12;96714.97;;;9.86;84.45
4012;BME280;2020;48.682;9.024;2023-04-30T06:34:38;96707.53;;;9.91;83.49
4012;BME280;2020;48.682;9.024;2023-04-30T06:37:03;96718.75;;;10.02;83.75
4012;BME280;2020;48.682;9.024;2023-04-30T06:39:28;96706.13;;;10.07;83.18
4012;BME280;2020;48.682;9.024;2023-04-30T06:41:53;96701.38;;;10.20;83.90
4012;BME280;2020;48.682;9.024;2023-04-30T06:44:19;96707.84;;;10.34;82.66
4012;BME280;2020;48.682;9.024;2023-04-30T06:46:44;96708.09;;;10.41;82.28
4012;BME280;2020;48.682;9.024;2023-04-30T06:49:09;96716.28;;;10.46;82.48
4012;BME280;2020;48.682;9.024;2023-04-30T06:51:35;96713.56;;;10.38;81.12
4012;BME280;2020;48.682;9.024;2023-04-30T06:54:00;96718.50;;;10.41;81.04
4012;BME280;2020;48.682;9.024;2023-04-30T06:56:25;96707.81;;;10.44;80.06
4012;BME280;2020;48.682;9.024;2023-04-30T06:58:51;96713.53;;;10.66;79.99
4012;BME280;2020;48.682;9.024;2023-04-30T07:01:16;96719.69;;;10.65;78.84
4012;BME280;2020;48.682;9.024;2023-04-30T07:03:41;96709.88;;;10.59;78.81
4012;BME280;2020;48.682;9.024;2023-04-30T07:06:06;96705.78;;;10.56;78.70
4012;BME280;2020;48.682;9.024;2023-04-30T07:08:32;96702.44;;;10.64;78.53
4012;BME280;2020;48.682;9.024;2023-04-30T07:10:57;96701.41;;;10.57;77.98
4012;BME280;2020;48.682;9.024;2023-04-30T07:13:22;96704.44;;;10.70;78.30
4012;BME280;2020;48.682;9.024;2023-04-30T07:15:48;96711.06;;;10.82;78.23
4012;BME280;2020;48.682;9.024;2023-04-30T07:18:13;96702.56;;;10.80;77.29
4012;BME280;2020;48.682;9.024;2023-04-30T07:20:39;96704.88;;;10.83;77.74
4012;BME280;2020;48.682;9.024;2023-04-30T07:23:04;96706.31;;;11.04;76.36
4012;BME280;2020;48.682;9.024;2023-04-30T07:25:29;96693.84;;;11.34;75.30
4012;BME280;2020;48.682;9.024;2023-04-30T07:27:54;96696.44;;;11.34;73.83
4012;BME280;2020;48.682;9.024;2023-04-30T07:30:20;96701.19;;;11.74;76.03
4012;BME280;2020;48.682;9.024;2023-04-30T07:32:46;96700.91;;;11.85;73.59
4012;BME280;2020;48.682;9.024;2023-04-30T07:35:11;96696.06;;;11.98;73.01
4012;BME280;2020;48.682;9.024;2023-04-30T07:37:37;96689.28;;;12.31;73.47
4012;BME280;2020;48.682;9.024;2023-04-30T07:40:03;96689.19;;;12.57;71.05
4012;BME280;2020;48.682;9.024;2023-04-30T07:42:29;96676.28;;;12.72;70.88
4012;BME280;2020;48.682;9.024;2023-04-30T07:44:54;96685.44;;;12.84;68.56
4012;BME280;2020;48.682;9.024;2023-04-30T07:47:19;96686.72;;;12.89;67.81
4012;BME280;2020;48.682;9.024;2023-04-30T07:49:48;96683.13;;;13.06;67.41
4012;BME280;2020;48.682;9.024;2023-04-30T07:52:13;96677.88;;;13.14;67.36
4012;BME280;2020;48.682;9.024;2023-04-30T07:54:38;96676.06;;;13.31;66.99
4012;BME280;2020;48.682;9.024;2023-04-30T07:57:04;96682.75;;;13.42;65.83
4012;BME280;2020;48.682;9.024;2023-04-30T07:59:30;96677.78;;;13.56;63.18
4012;BME280;2020;48.682;9.024;2023-04-30T08:01:56;96673.41;;;13.40;63.93
4012;BME280;2020;48.682;9.024;2023-04-30T08:04:21;96685.69;;;13.31;63.69
4012;BME280;2020;48.682;9.024;2023-04-30T08:06:46;96687.28;;;13.49;62.20
4012;BME280;2020;48.682;9.024;2023-04-30T08:09:12;96690.56;;;13.51;62.80
4012;BME280;2020;48.682;9.024;2023-04-30T08:11:37;96689.59;;;13.43;62.38
4012;BME280;2020;48.682;9.024;2023-04-30T08:14:02;96688.28;;;13.39;63.75
4012;BME280;2020;48.682;9.024;2023-04-30T08:16:28;96692.13;;;13.68;61.46
4012;BME280;2020;48.682;9.024;2023-04-30T08:18:53;96686.13;;;13.91;61.23
4012;BME280;2020;48.682;9.024;2023-04-30T08:21:19;96687.38;;;14.12;58.75
4012;BME280;2020;48.682;9.024;2023-04-30T08:23:44;96691.72;;;13.96;59.78
4012;BME280;2020;48.682;9.024;2023-04-30T08:26:10;96694.31;;;13.56;60.28
4012;BME280;2020;48.682;9.024;2023-04-30T08:28:35;96698.28;;;13.27;60.76
4012;BME280;2020;48.682;9.024;2023-04-30T08:31:00;96687.00;;;13.27;62.01
4012;BME280;2020;48.682;9.024;2023-04-30T08:33:26;96694.06;;;13.74;61.09
4012;BME280;2020;48.682;9.024;2023-04-30T08:35:51;96702.47;;;13.62;60.12
4012;BME280;2020;48.682;9.024;2023-04-30T08:38:16;96696.91;;;13.65;59.77
4012;BME280;2020;48.682;9.024;2023-04-30T08:40:44;96695.47;;;13.37;58.46
4012;BME280;2020;48.682;9.024;2023-04-30T08:43:13;96702.38;;;13.22;59.50
4012;BME280;2020;48.682;9.024;2023-04-30T08:45:39;96701.09;;;13.01;61.15
4012;BME280;2020;48.682;9.024;2023-04-30T08:48:09;96702.72;;;13.02;61.36
4012;BME280;2020;48.682;9.024;2023-04-30T08:50:35;96697.50;;;13.02;60.40
4012;BME280;2020;48.682;9.024;2023-04-30T08:53:01;96694.16;;;13.33;61.07
4012;BME280;2020;48.682;9.024;2023-04-30T08:55:27;96694.09;;;13.66;59.87
4012;BME280;2020;48.682;9.024;2023-04-30T08:57:52;96690.56;;;13.34;59.79
4012;BME280;2020;48.682;9.024;2023-04-30T09:00:18;96683.75;;;13.16;60.24
4012;BME280;2020;48.682;9.024;2023-04-30T09:02:44;96683.41;;;13.20;61.31
4012;BME280;2020;48.682;9.024;2023-04-30T09:05:12;96689.78;;;13.09;60.97
4012;BME280;2020;48.682;9.024;2023-04-30T09:07:40;96686.06;;;13.11;60.93
4012;BME280;2020;48.682;9.024;2023-04-30T09:10:27;96679.16;;;13.27;61.21
4012;BME280;2020;48.682;9.024;2023-04-30T09:13:00;96689.63;;;13.27;61.96
4012;BME280;2020;48.682;9.024;2023-04-30T09:15:26;96687.00;;;13.19;59.30
4012;BME280;2020;48.682;9.024;2023-04-30T09:20:34;96694.22;;;13.00;60.99
4012;BME280;2020;48.682;9.024;2023-04-30T09:23:10;96686.84;;;13.12;60.19
4012;BME280;2020;48.682;9.024;2023-04-30T09:25:42;96695.19;;;13.07;60.74
4012;BME280;2020;48.682;9.024;2023-04-30T09:28:12;96698.78;;;13.06;60.19
4012;BME280;2020;48.682;9.024;2023-04-30T09:30:38;96697.16;;;13.05;59.17
4012;BME280;2020;48.682;9.024;2023-04-30T09:33:04;96700.09;;;13.10;58.70
4012;BME280;2020;48.682;9.024;2023-04-30T09:35:31;96694.88;;;13.10;60.36
4012;BME280;2020;48.682;9.024;2023-04-30T09:37:59;96696.16;;;13.14;58.82
4012;BME280;2020;48.682;9.024;2023-04-30T09:40:36;96697.81;;;13.07;58.99
4012;BME280;2020;48.682;9.024;2023-04-30T09:43:02;96701.72;;;13.11;58.48
4012;BME280;2020;48.682;9.024;2023-04-30T09:45:42;96699.13;;;13.03;56.97
4012;BME280;2020;48.682;9.024;2023-04-30T09:48:08;96695.53;;;13.04;57.61
4012;BME280;2020;48.682;9.024;2023-04-30T09:50:38;96688.94;;;13.33;56.87
4012;BME280;2020;48.682;9.024;2023-04-30T09:53:08;96687.50;;;13.30;56.96
4012;BME280;2020;48.682;9.024;2023-04-30T09:55:35;96690.56;;;13.51;56.75
4012;BME280;2020;48.682;9.024;2023-04-30T09:58:04;96686.91;;;13.68;57.92
4012;BME280;2020;48.682;9.024;2023-04-30T10:00:32;96684.31;;;13.60;56.23
4012;BME280;2020;48.682;9.024;2023-04-30T10:02:58;96689.53;;;13.60;55.92
4012;BME280;2020;48.682;9.024;2023-04-30T10:05:25;96694.50;;;13.47;54.50
4012;BME280;2020;48.682;9.024;2023-04-30T10:07:51;96683.03;;;13.56;54.84
4012;BME280;2020;48.682;9.024;2023-04-30T10:10:17;96690.81;;;13.72;55.24
4012;BME280;2020;48.682;9.024;2023-04-30T10:12:50;96689.47;;;13.77;53.40
4012;BME280;2020;48.682;9.024;2023-04-30T10:15:24;96691.72;;;13.96;54.89
4012;BME280;2020;48.682;9.024;2023-04-30T10:17:56;96687.81;;;13.84;53.27
4012;BME280;2020;48.682;9.024;2023-04-30T10:20:25;96688.06;;;14.06;54.29
4012;BME280;2020;48.682;9.024;2023-04-30T10:22:50;96687.41;;;14.03;54.68
4012;BME280;2020;48.682;9.024;2023-04-30T10:25:17;96687.47;;;13.95;54.95
4012;BME280;2020;48.682;9.024;2023-04-30T10:27:44;96697.09;;;13.95;54.29
4012;BME280;2020;48.682;9.024;2023-04-30T10:30:10;96690.50;;;14.07;54.60
4012;BME280;2020;48.682;9.024;2023-04-30T10:36:00;96678.66;;;13.80;52.43
4012;BME280;2020;48.682;9.024;2023-04-30T10:38:29;96686.47;;;13.88;52.44
4012;BME280;2020;48.682;9.024;2023-04-30T10:40:57;96685.81;;;13.94;53.03
4012;BME280;2020;48.682;9.024;2023-04-30T10:43:24;96677.59;;;14.06;52.98
4012;BME280;2020;48.682;9.024;2023-04-30T10:45:49;96671.31;;;14.15;53.79
4012;BME280;2020;48.682;9.024;2023-04-30T10:48:15;96670.59;;;13.98;52.01
4012;BME280;2020;48.682;9.024;2023-04-30T10:50:49;96674.69;;;14.00;53.40
4012;BME280;2020;48.682;9.024;2023-04-30T10:53:17;96661.53;;;14.09;52.59
4012;BME280;2020;48.682;9.024;2023-04-30T10:55:52;96672.75;;;13.86;52.51
4012;BME280;2020;48.682;9.024;2023-04-30T11:00:51;96664.91;;;13.94;52.80
4012;BME280;2020;48.682;9.024;2023-04-30T11:03:23;96660.50;;;14.18;53.18
4012;BME280;2020;48.682;9.024;2023-04-30T11:05:49;96652.59;;;14.26;53.04
4012;BME280;2020;48.682;9.024;2023-04-30T11:08:14;96647.66;;;14.31;52.84
4012;BME280;2020;48.682;9.024;2023-04-30T11:10:56;96648.53;;;14.47;53.30
4012;BME280;2020;48.682;9.024;2023-04-30T11:13:25;96642.94;;;14.50;51.65
4012;BME280;2020;48.682;9.024;2023-04-30T11:15:51;96644.19;;;14.31;50.85
4012;BME280;2020;48.682;9.024;2023-04-30T11:18:17;96642.78;;;14.67;52.82
4012;BME280;2020;48.682;9.024;2023-04-30T11:20:48;96649.53;;;14.84;49.17
4012;BME280;2020;48.682;9.024;2023-04-30T11:23:16;96646.31;;;14.36;48.01
4012;BME280;2020;48.682;9.024;2023-04-30T11:25:45;96641.84;;;14.21;47.32
4012;BME280;2020;48.682;9.024;2023-04-30T11:28:21;96649.22;;;14.41;48.82
4012;BME280;2020;48.682;9.024;2023-04-30T11:30:58;96639.44;;;14.35;47.89
4012;BME280;2020;48.682;9.024;2023-04-30T11:33:25;96643.28;;;14.47;48.35
4012;BME280;2020;48.682;9.024;2023-04-30T11:35:52;96632.34;;;14.20;47.34
4012;BME280;2020;48.682;9.024;2023-04-30T11:38:24;96639.22;;;14.21;48.32
4012;BME280;2020;48.682;9.024;2023-04-30T11:40:50;96622.47;;;14.30;48.22
4012;BME280;2020;48.682;9.024;2023-04-30T11:43:26;96626.03;;;14.53;47.11
4012;BME280;2020;48.682;9.024;2023-04-30T11:48:29;96634.91;;;14.75;48.31
4012;BME280;2020;48.682;9.024;2023-04-30T11:50:55;96624.97;;;14.85;48.05
4012;BME280;2020;48.682;9.024;2023-04-30T11:53:26;96623.13;;;14.71;47.30
4012;BME280;2020;48.682;9.024;2023-04-30T11:55:52;96622.53;;;14.84;49.30
4012;BME280;2020;48.682;9.024;2023-04-30T11:58:19;96617.19;;;14.77;47.42
4012;BME280;2020;48.682;9.024;2023-04-30T12:00:44;96619.09;;;14.83;49.42
4012;BME280;2020;48.682;9.024;2023-04-30T12:03:13;96625.44;;;14.66;48.12
4012;BME280;2020;48.682;9.024;2023-04-30T12:05:39;96617.91;;;14.71;49.61
4012;BME280;2020;48.682;9.024;2023-04-30T12:08:06;96612.69;;;15.01;50.22
4012;BME280;2020;48.682;9.024;2023-04-30T12:10:32;96616.59;;;14.90;47.89
4012;BME280;2020;48.682;9.024;2023-04-30T12:12:58;96609.00;;;14.95;48.81
4012;BME280;2020;48.682;9.024;2023-04-30T12:15:24;96614.50;;;15.15;47.61
4012;BME280;2020;48.682;9.024;2023-04-30T12:17:51;96621.03;;;15.34;49.04
4012;BME280;2020;48.682;9.024;2023-04-30T12:20:19;96613.25;;;15.11;47.70
4012;BME280;2020;48.682;9.024;2023-04-30T12:22:45;96618.69;;;15.25;48.33
4012;BME280;2020;48.682;9.024;2023-04-30T12:25:20;96623.00;;;15.17;48.12
4012;BME280;2020;48.682;9.024;2023-04-30T12:27:47;96630.34;;;15.22;47.72
4012;BME280;2020;48.682;9.024;2023-04-30T12:30:13;96623.56;;;15.28;47.08
4012;BME280;2020;48.682;9.024;2023-04-30T12:32:43;96624.28;;;15.21;47.06
4012;BME280;2020;48.682;9.024;2023-04-30T12:35:16;96616.59;;;15.20;47.61
4012;BME280;2020;48.682;9.024;2023-04-30T12:37:45;96620.47;;;15.09;47.22
4012;BME280;2020;48.682;9.024;2023-04-30T12:40:12;96616.84;;;15.10;47.14
4012;BME280;2020;48.682;9.024;2023-04-30T12:42:41;96615.78;;;15.34;48.29
4012;BME280;2020;48.682;9.024;2023-04-30T12:45:07;96614.97;;;15.34;47.07
4012;BME280;2020;48.682;9.024;2023-04-30T12:47:36;96599.69;;;15.53;46.04
4012;BME280;2020;48.682;9.024;2023-04-30T12:50:07;96603.88;;;15.32;46.59
4012;BME280;2020;48.682;9.024;2023-04-30T12:52:33;96609.63;;;15.42;46.54
4012;BME280;2020;48.682;9.024;2023-04-30T12:55:13;96600.03;;;15.49;47.24
4012;BME280;2020;48.682;9.024;2023-04-30T12:57:39;96599.47;;;15.69;46.14
4012;BME280;2020;48.682;9.024;2023-04-30T13:00:04;96602.66;;;15.49;47.10
4012;BME280;2020;48.682;9.024;2023-04-30T13:02:32;96592.06;;;15.58;45.88
4012;BME280;2020;48.682;9.024;2023-04-30T13:04:58;96600.63;;;15.67;46.88
4012;BME280;2020;48.682;9.024;2023-04-30T13:07:23;96581.09;;;15.69;47.22
4012;BME280;2020;48.682;9.024;2023-04-30T13:09:48;96586.88;;;15.64;46.98
4012;BME280;2020;48.682;9.024;2023-04-30T13:12:14;96584.38;;;15.56;46.31
4012;BME280;2020;48.682;9.024;2023-04-30T13:14:39;96570.03;;;15.74;45.10
4012;BME280;2020;48.682;9.024;2023-04-30T13:17:04;96579.97;;;15.93;47.04
4012;BME280;2020;48.682;9.024;2023-04-30T13:19:31;96581.34;;;15.74;46.68
4012;BME280;2020;48.682;9.024;2023-04-30T13:21:57;96569.03;;;15.90;46.46
4012;BME280;2020;48.682;9.024;2023-04-30T13:24:23;96578.16;;;16.16;46.67
4012;BME280;2020;48.682;9.024;2023-04-30T13:26:48;96571.16;;;16.01;46.86
4012;BME280;2020;48.682;9.024;2023-04-30T13:29:14;96584.78;;;15.90;46.22
4012;BME280;2020;48.682;9.024;2023-04-30T13:31:39;96580.41;;;15.97;46.78
4012;BME280;2020;48.682;9.024;2023-04-30T13:34:07;96571.66;;;15.75;46.53
4012;BME280;2020;48.682;9.024;2023-04-30T13:36:33;96569.22;;;15.73;45.88
4012;BME280;2020;48.682;9.024;2023-04-30T13:38:59;96574.00;;;15.85;46.74
4012;BME280;2020;48.682;9.024;2023-04-30T13:41:24;96578.09;;;15.72;45.59
4012;BME280;2020;48.682;9.024;2023-04-30T13:43:50;96563.53;;;15.70;45.81
4012;BME280;2020;48.682;9.024;2023-04-30T13:46:15;96564.03;;;15.80;46.48
4012;BME280;2020;48.682;9.024;2023-04-30T13:48:40;96561.25;;;15.82;46.10
4012;BME280;2020;48.682;9.024;2023-04-30T13:51:06;96558.53;;;15.90;47.60